createdAt,value
2019-04-24T03:34:42.921Z,88.71
2019-04-24T03:37:10.441Z,88.70
2019-04-24T03:44:50.119Z,88.87
2019-04-24T03:46:57.960Z,88.99
2019-04-24T03:49:54.935Z,88.89
2019-04-24T03:52:18.477Z,88.57
2019-04-24T03:55:03.678Z,88.74
2019-04-24T04:03:07.082Z,88.93
2019-04-24T04:10:33.923Z,89.25
2019-04-24T04:13:29.607Z,89.09
2019-04-24T04:15:33.949Z,89.22
2019-04-24T04:18:42.215Z,89.55
2019-04-24T04:26:37.855Z,89.28
2019-04-24T04:32:43.874Z,89.40
2019-04-24T04:35:05.343Z,89.01
2019-04-24T04:37:38.398Z,88.80
2019-04-24T04:40:49.399Z,88.66
2019-04-24T04:45:58.735Z,89.17
2019-04-24T04:48:26.854Z,89.10
2019-04-24T04:56:29.143Z,88.61
2019-04-24T05:02:02.833Z,88.25
2019-04-24T05:04:45.369Z,88.30
2019-04-24T05:12:33.796Z,90.02
2019-04-24T05:17:50.502Z,89.53
2019-04-24T05:20:27.011Z,89.78
2019-04-24T05:22:36.442Z,89.54
2019-04-24T05:25:29.213Z,89.22
2019-04-24T05:27:43.330Z,89.65
2019-04-24T05:30:28.547Z,89.28
2019-04-24T05:35:47.158Z,90.10
2019-04-24T05:38:18.255Z,88.26
2019-04-24T05:40:49.634Z,89.42
2019-04-24T05:46:05.320Z,89.05
2019-04-24T05:48:43.853Z,87.92
2019-04-24T05:59:20.299Z,87.90
2019-04-24T06:02:26.077Z,87.52
2019-04-24T06:07:53.794Z,86.71
2019-04-24T06:10:23.851Z,86.38
2019-04-24T06:12:58.978Z,86.23
2019-04-24T06:16:21.514Z,86.04
2019-04-24T06:19:02.338Z,85.58
2019-04-24T06:24:07.688Z,83.21
2019-04-24T06:26:20.763Z,85.06
2019-04-24T06:39:39.182Z,83.67
2019-04-24T06:42:25.219Z,83.33
2019-04-24T06:49:54.115Z,82.89
2019-04-24T06:54:53.938Z,83.22
2019-04-24T07:00:32.056Z,79.73
2019-04-24T07:02:56.450Z,80.81
2019-04-24T07:05:35.134Z,80.39
2019-04-24T07:08:07.180Z,79.87
2019-04-24T07:11:05.746Z,79.77
2019-04-24T07:14:03.012Z,78.43
2019-04-24T07:16:43.639Z,77.17
2019-04-24T07:19:22.605Z,75.27
2019-04-24T07:21:50.777Z,75.74
2019-04-24T07:24:39.164Z,76.36
2019-04-24T07:26:59.633Z,74.93
2019-04-24T07:32:30.008Z,75.03
2019-04-24T07:35:29.581Z,73.54
2019-04-24T07:37:52.615Z,72.64
2019-04-24T07:40:12.802Z,72.47
2019-04-24T07:43:07.581Z,71.34
2019-04-24T07:45:34.005Z,69.97
2019-04-24T07:47:51.164Z,70.76
2019-04-24T08:04:16.720Z,67.55
2019-04-24T08:09:57.079Z,67.24
2019-04-24T08:12:08.645Z,66.95
2019-04-24T08:14:55.544Z,66.18
2019-04-24T08:17:12.940Z,65.84
2019-04-24T08:22:10.859Z,63.20
2019-04-24T08:27:17.761Z,60.00
2019-04-24T08:29:57.130Z,59.92
2019-04-24T08:32:25.119Z,61.63
2019-04-24T08:37:38.817Z,58.98
2019-04-24T08:40:46.281Z,58.44
2019-04-24T08:45:53.322Z,56.44
2019-04-24T08:48:48.506Z,55.58
2019-04-24T08:58:57.539Z,53.17
2019-04-24T09:01:46.634Z,53.41
2019-04-24T09:06:40.426Z,52.91
2019-04-24T09:09:18.317Z,52.55
2019-04-24T09:12:07.545Z,50.98
2019-04-24T09:14:39.643Z,50.53
2019-04-24T09:17:10.200Z,49.30
2019-04-24T09:19:57.453Z,49.10
2019-04-24T09:22:46.554Z,48.92
2019-04-24T09:25:30.192Z,47.64
2019-04-24T09:30:25.679Z,47.00
2019-04-24T09:38:49.172Z,45.40
2019-04-24T09:54:40.108Z,43.94
2019-04-24T09:57:19.374Z,43.39
2019-04-24T09:59:45.596Z,43.51
2019-04-24T10:02:30.809Z,42.97
2019-04-24T10:07:50.212Z,39.83
2019-04-24T10:13:02.966Z,37.26
2019-04-24T10:15:40.706Z,38.08
2019-04-24T10:18:25.014Z,34.62
2019-04-24T10:20:51.467Z,34.95
2019-04-24T10:24:01.458Z,36.14
2019-04-24T10:34:52.590Z,35.35
2019-04-24T10:38:03.065Z,34.56
2019-04-24T10:40:25.663Z,33.46
2019-04-24T10:43:10.457Z,34.90
2019-04-24T10:46:21.225Z,35.40
2019-04-24T10:49:31.830Z,35.04
2019-04-24T10:54:45.098Z,34.10
2019-04-24T10:57:11.176Z,33.87
2019-04-24T10:59:51.319Z,33.99
2019-04-24T11:08:25.758Z,33.72
2019-04-24T11:10:54.132Z,33.45
2019-04-24T11:13:55.767Z,31.19
2019-04-24T11:17:07.325Z,32.07
2019-04-24T11:19:36.271Z,31.70
2019-04-24T11:22:25.370Z,31.17
2019-04-24T11:25:11.729Z,31.45
2019-04-24T11:33:21.104Z,29.57
2019-04-24T11:36:02.617Z,30.56
2019-04-24T11:38:54.259Z,30.88
2019-04-24T11:41:26.085Z,30.17
2019-04-24T11:43:58.676Z,30.11
2019-04-24T11:49:32.758Z,29.87
2019-04-24T11:52:57.312Z,30.99
2019-04-24T11:58:21.118Z,30.99
2019-04-24T12:00:26.281Z,29.35
2019-04-24T12:03:44.698Z,29.33
2019-04-24T12:06:14.011Z,29.88
2019-04-24T12:16:46.927Z,27.31
2019-04-24T12:19:28.757Z,27.51
2019-04-24T12:22:12.241Z,28.60
2019-04-24T12:27:18.229Z,26.82
2019-04-24T12:32:58.081Z,29.14
2019-04-24T12:35:29.026Z,28.59
2019-04-24T12:43:49.591Z,28.17
2019-04-24T12:46:25.827Z,28.02
2019-04-24T12:51:10.590Z,28.73
2019-04-24T12:54:05.849Z,28.66
2019-04-24T12:56:58.284Z,28.63
2019-04-24T12:59:34.463Z,29.22
2019-04-24T13:02:12.988Z,27.84
2019-04-24T13:05:00.384Z,28.52
2019-04-24T13:07:15.662Z,26.34
2019-04-24T13:20:17.297Z,29.57
2019-04-24T13:22:50.360Z,26.62
2019-04-24T13:26:06.067Z,28.16
2019-04-24T13:28:52.316Z,28.23
2019-04-24T13:31:52.050Z,28.37
2019-04-24T13:36:57.489Z,28.03
2019-04-24T13:39:35.976Z,28.84
2019-04-24T13:42:02.826Z,28.02
2019-04-24T13:44:28.063Z,28.48
2019-04-24T13:47:07.776Z,25.91
2019-04-24T13:52:16.919Z,27.69
2019-04-24T13:54:42.663Z,27.11
2019-04-24T13:57:07.241Z,26.06
2019-04-24T13:59:46.398Z,25.97
2019-04-24T14:02:20.393Z,27.04
2019-04-24T14:04:47.673Z,26.30
2019-04-24T14:07:28.782Z,26.70
2019-04-24T14:15:08.904Z,26.06
2019-04-24T14:17:24.388Z,26.92
2019-04-24T14:23:02.487Z,25.78
2019-04-24T14:28:10.861Z,26.85
2019-04-24T14:30:35.972Z,26.04
2019-04-24T14:35:50.239Z,26.57
2019-04-24T14:38:14.292Z,26.85
2019-04-24T14:40:33.217Z,26.90
2019-04-24T14:43:23.711Z,27.57
2019-04-24T14:46:03.530Z,27.41
2019-04-24T14:48:21.573Z,26.32
2019-04-24T14:51:00.515Z,26.67
2019-04-24T14:53:24.320Z,28.14
2019-04-24T14:55:53.611Z,27.38
2019-04-24T14:58:26.949Z,27.18
2019-04-24T15:03:34.353Z,27.93
2019-04-24T15:08:33.321Z,26.85
2019-04-24T15:11:04.537Z,27.04
2019-04-24T15:18:57.621Z,25.70
2019-04-24T15:21:22.218Z,25.42
2019-04-24T15:24:22.182Z,24.20
2019-04-24T15:26:25.878Z,24.33
2019-04-24T15:29:03.614Z,24.61
2019-04-24T15:31:20.350Z,25.39
2019-04-24T15:34:16.098Z,26.21
2019-04-24T15:36:25.837Z,24.20
2019-04-24T15:39:08.005Z,24.66
2019-04-24T15:42:02.682Z,24.73
2019-04-24T15:44:08.722Z,24.17
2019-04-24T15:46:50.387Z,25.08
2019-04-24T15:49:21.641Z,24.77
2019-04-24T15:51:30.293Z,24.76
2019-04-24T15:53:51.137Z,24.62
2019-04-24T15:56:22.969Z,26.65
2019-04-24T15:59:03.014Z,26.65
2019-04-24T16:02:00.409Z,27.30
2019-04-24T16:04:27.814Z,26.71
2019-04-24T16:06:42.951Z,27.11
2019-04-24T16:09:27.887Z,27.57
2019-04-24T16:11:58.637Z,27.45
2019-04-24T16:14:53.095Z,28.61
2019-04-24T16:17:35.274Z,28.89
2019-04-24T16:22:33.210Z,28.96
2019-04-24T16:25:11.120Z,29.02
2019-04-24T16:35:15.307Z,29.37
2019-04-24T16:37:50.962Z,29.59
2019-04-24T16:40:47.029Z,30.33
2019-04-24T16:46:03.983Z,30.77
2019-04-24T16:48:29.686Z,30.09
2019-04-24T16:51:03.716Z,30.60
2019-04-24T16:53:27.806Z,30.69
2019-04-24T16:55:52.924Z,31.16
2019-04-24T16:58:31.541Z,31.05
2019-04-24T17:01:24.665Z,30.41
2019-04-24T17:06:26.070Z,31.48
2019-04-24T17:08:59.833Z,35.75
2019-04-24T17:11:47.674Z,39.59
2019-04-24T17:17:29.901Z,40.69
2019-04-24T17:19:59.346Z,39.72
2019-04-24T17:25:01.112Z,38.21
2019-04-24T17:35:18.637Z,37.41
2019-04-24T17:37:09.855Z,36.62
2019-04-24T17:40:01.958Z,35.64
2019-04-24T17:42:47.354Z,35.69
2019-04-24T17:45:36.121Z,35.51
2019-04-24T17:50:32.086Z,37.98
2019-04-24T17:53:16.819Z,35.91
2019-04-24T17:55:43.254Z,36.91
2019-04-24T17:57:46.711Z,36.57
2019-04-24T18:00:34.883Z,37.43
2019-04-24T18:03:10.805Z,36.86
2019-04-24T18:05:37.256Z,37.86
2019-04-24T18:08:08.594Z,36.57
2019-04-24T18:10:39.604Z,37.29
2019-04-24T18:13:11.413Z,36.54
2019-04-24T18:15:42.773Z,37.04
2019-04-24T18:18:13.348Z,37.17
2019-04-24T18:20:45.301Z,37.29
2019-04-24T18:23:15.848Z,37.37
2019-04-24T18:26:25.599Z,36.80
2019-04-24T18:29:22.329Z,37.35
2019-04-24T18:32:18.288Z,37.03
2019-04-24T18:35:16.203Z,36.74
2019-04-24T18:38:16.436Z,37.21
2019-04-24T18:41:11.617Z,37.08
2019-04-24T18:44:06.587Z,36.61
2019-04-24T18:47:02.524Z,36.80
2019-04-24T18:49:59.443Z,37.91
2019-04-24T18:52:56.103Z,36.57
2019-04-24T18:55:52.723Z,37.11
2019-04-24T18:58:49.633Z,36.26
2019-04-24T19:01:45.493Z,36.20
2019-04-24T19:04:43.219Z,36.45
2019-04-24T19:07:38.928Z,35.46
2019-04-24T19:10:36.506Z,35.76
2019-04-24T19:13:32.235Z,36.22
2019-04-24T19:16:29.061Z,36.08
2019-04-24T19:19:24.012Z,37.02
2019-04-24T19:22:20.646Z,36.79
2019-04-24T19:25:17.563Z,36.99
2019-04-24T19:28:16.201Z,37.18
2019-04-24T19:31:10.332Z,37.02
2019-04-24T19:34:09.215Z,37.01
2019-04-24T19:37:05.992Z,37.32
2019-04-24T19:40:01.697Z,36.63
2019-04-24T19:43:01.402Z,36.68
2019-04-24T19:45:56.385Z,37.29
2019-04-24T19:48:52.334Z,37.06
2019-04-24T19:51:49.169Z,37.22
2019-04-24T19:54:45.894Z,37.95
2019-04-24T19:57:42.462Z,38.07
2019-04-24T20:00:37.976Z,38.33
2019-04-24T20:03:35.898Z,38.47
2019-04-24T20:06:32.771Z,39.79
2019-04-24T20:09:53.396Z,39.17
2019-04-24T20:12:51.216Z,38.21
2019-04-24T20:15:46.972Z,38.62
2019-04-24T20:18:44.504Z,38.52
2019-04-24T20:21:39.123Z,38.72
2019-04-24T20:24:35.991Z,39.12
2019-04-24T20:27:32.869Z,39.24
2019-04-24T20:30:31.325Z,38.71
2019-04-24T20:33:27.443Z,38.67
2019-04-24T20:36:24.739Z,38.36
2019-04-24T20:39:21.543Z,38.56
2019-04-24T20:42:17.323Z,38.29
2019-04-24T20:45:16.120Z,38.61
2019-04-24T20:48:11.011Z,38.76
2019-04-24T20:51:06.628Z,39.04
2019-04-24T20:54:02.465Z,39.36
2019-04-24T20:57:06.559Z,41.62
2019-04-24T20:59:54.847Z,47.09
2019-04-24T21:02:51.395Z,49.95
2019-04-24T21:06:05.088Z,51.25
2019-04-24T21:09:17.468Z,52.71
2019-04-24T21:12:06.395Z,55.08
2019-04-24T21:15:15.329Z,55.75
2019-04-24T21:18:11.164Z,57.03
2019-04-24T21:21:07.867Z,58.77
2019-04-24T21:24:04.486Z,59.32
2019-04-24T21:27:01.876Z,60.18
2019-04-24T21:29:57.032Z,60.12
2019-04-24T21:32:53.351Z,60.51
2019-04-24T21:35:52.275Z,60.71
2019-04-24T21:38:47.525Z,61.10
2019-04-24T21:41:44.290Z,61.11
2019-04-24T21:44:41.911Z,61.97
2019-04-24T21:47:37.646Z,61.89
2019-04-24T21:50:33.472Z,62.89
2019-04-24T21:53:32.419Z,63.20
2019-04-24T21:56:26.724Z,63.75
2019-04-24T21:59:23.574Z,63.95
2019-04-24T22:02:31.896Z,63.67
2019-04-24T22:05:31.795Z,63.94
2019-04-24T22:08:27.964Z,64.01
2019-04-24T22:11:24.819Z,65.47
2019-04-24T22:14:22.142Z,65.60
2019-04-24T22:17:17.374Z,65.97
2019-04-24T22:20:12.935Z,66.78
2019-04-24T22:23:24.171Z,67.33
2019-04-24T22:26:21.229Z,67.85
2019-04-24T22:29:17.522Z,68.24
2019-04-24T22:32:31.033Z,68.56
2019-04-24T22:35:33.716Z,68.62
2019-04-24T22:38:29.169Z,68.60
2019-04-24T22:41:24.534Z,69.77
2019-04-24T22:44:21.968Z,69.84
2019-04-24T22:47:17.788Z,69.87
2019-04-24T22:50:14.477Z,69.41
2019-04-24T22:53:12.033Z,69.94
2019-04-24T22:56:08.808Z,69.56
2019-04-24T22:59:04.220Z,70.90
2019-04-24T23:02:02.915Z,70.83
2019-04-24T23:04:58.785Z,70.59
2019-04-24T23:07:54.622Z,70.96
2019-04-24T23:10:53.814Z,70.83
2019-04-24T23:13:47.796Z,71.14
2019-04-24T23:16:44.679Z,70.56
2019-04-24T23:19:41.681Z,69.89
2019-04-24T23:22:48.933Z,69.26
2019-04-24T23:25:54.135Z,69.99
2019-04-24T23:28:59.285Z,69.28
2019-04-24T23:32:13.765Z,68.59
2019-04-24T23:35:09.186Z,69.59
2019-04-24T23:38:12.196Z,68.76
2019-04-24T23:41:10.914Z,68.76
2019-04-24T23:44:04.794Z,68.90
2019-04-24T23:47:03.529Z,69.23
2019-04-24T23:49:59.133Z,69.37
2019-04-24T23:52:55.736Z,69.38
2019-04-24T23:55:51.487Z,68.94
2019-04-24T23:58:48.189Z,68.36
